Relevés horaires Semmerzake (Belgique)


Relevés horaires à Semmerzake - Lundi 12 Juill. 2021
Heure UTC1 Température [°C] Vent [km/h] Hum. [%] Pres.4 [hPa] Visi. [Km] Nébu. [octa] Préc.5 [mm] Cond.
2m. Res. Ros. Dir.2 Vit. Moy. Raf.3
23:00 17.0 17.0 16.2 NNO 1.9 -- 3.7 95 1010.5(0.5/3h) 5 -- -- --
22:00 17.6 17.6 16.5 NNO 1.9 -- 1.9 93 1010.3(0.8/3h) 8 -- -- --
21:00 18.0 18.0 16.5 NNO 1.9 -- 5.6 91 1010.3(0.9/3h) 13 -- -- --
20:00 18.5 18.5 16.5 NNO 1.9 -- 5.6 88 1009.8(0.4/3h) 19 -- -- --
19:00 19.2 19.2 16.7 NNO 1.9 -- 5.6 85 1009.5(0.0/3h) 19 -- -- --
18:00 19.7 19.7 16.8 NNO 1.9 -- 9.3 83 1009.3(0.0/3h) 19 -- trace/12h
--
17:00 20.3 20.3 16.6 NNO 1.9 -- 5.6 79 1009.5(0.2/3h) 19 -- -- --
16:00 20.3 20.3 16.5 NNO 1.9 -- 9.3 79 1009.3(0.0/3h) 20 -- -- --
15:00 20.6 20.6 16.1 SO 5.6 -- 9.3 75 1009.3(-0.4/3h) 20 -- -- --
14:00 20.8 20.8 16.4 S 5.6 -- 9.3 76 1009.2(-0.4/3h) 19 -- -- --
13:00 21.7 21.7 16.5 S 3.7 -- 5.6 72 1009.5(-0.4/3h) 19 -- -- --
12:00 21.2 21.2 16.3 NNO 1.9 -- 7.4 74 1009.8(-0.1/3h) 20 -- trace/6h
NA
11:00 21.1 21.1 17.0 NNO 1.9 -- 3.7 77 1009.7(-0.5/3h) 20 -- -- NA
10:00 21.1 21.1 16.0 NNO 1.9 -- 5.6 73 1009.8(-0.5/3h) 20 -- -- --
09:00 20.5 20.5 15.3 SE 3.7 -- 5.6 72 1010(-0.8/3h) 20 -- -- --
08:00 19.9 19.9 15.7 SE 3.7 -- 5.6 77 1010.2(-0.8/3h) 20 -- -- --
07:00 17.9 17.9 15.7 NNO 1.9 -- 3.7 87 1010.5(-1.0/3h) 20 -- -- --
06:00 16.5 16.5 14.9 NNO 1.9 -- 7.4 90 1011(-0.9/3h) 14 -- -- --
05:00 16.2 16.2 14.1 E 3.7 -- 7.4 87 1011.2(-1.4/3h) 19 -- -- --
04:00 15.8 15.8 13.9 NNO 1.9 -- 5.6 88 1011.6(-1.7/3h) 19 -- -- --
03:00 15.3 15.3 14.1 NNO 1.9 -- 3.7 93 1012(-1.4/3h) 17 -- -- --
02:00 15.1 15.1 14.1 NNO 1.9 -- 3.7 94 1012.7(-1.3/3h) 14 -- -- --
01:00 15.4 15.4 13.3 NNO 1.9 -- 3.7 87 1013.2(-1.2/3h) 17 -- -- --
00:00 16.3 16.3 13.6 NNO 1.9 -- 3.7 84 1013.5(-1.3/3h) 20 -- -- --

1 Coordinated Universal Time. Actuellement il est 23:00 locale et 21:00 UTC.

2 Le vent souffle depuis la direction indiquée vers la direction oposée.

3 Les rafales max. sont disponible 40 min après l'heure du relevé.

4 Pour les stations d'altitude (plus de 600m) le géopotentiel du niveau le plus proche de la pression obligatoire est indiqué.

5 Les stations disposant d'un diffuseur peuvent indiquer "trace". Cela signifie que des précipitations ont touchés le sol mais que la quantité est inférieure à 0.1 mm.

Récapitulatif de la journée
Température [°C] Vent [km/h] Ensoleillement4 [h] Precipitations totale5 [mm] Pression [Hpa]
Min1 Max.2 Moy.3 Max. Min Max.
14.9 22.2 0 9.3 0 h 0 min 0 1009.2 1013.5

1 Température minimale relevée entre 18:00 UTC la veille et 18:00 UTC le jour donné.

2 Température maximale relevée entre 06:00 UTC le jour donné et 06:00 UTC le lendemain.

3 Vent moyen de la journée basé sur les relevés horaires.

4 Ensoleillement en heures relevé entre 06:00 UTC la veille et 06:00 UTC le jour donné.

5 Précipitations totales tombées entre 06:00 UTC la jour donné et 06:00 UTC le lendemain.

Graphiques horaires